Change the Weather History Date:

Tuesday, April 16, 2013

  Actual Average Record
Temperature  
Mean Temperature 50 °F -  
Max Temperature 62 °F 73 °F 91 °F (1967)
Min Temperature 38 °F 42 °F 28 °F (1993)
Degree Days  
Heating Degree Days 15    
Moisture  
Dew Point 34 °F    
Average Humidity 61    
Maximum Humidity 92    
Minimum Humidity 37    
Precipitation  
Precipitation 0.00 in - - ()
Sea Level Pressure  
Sea Level Pressure 29.90 in    
Wind  
Wind Speed 15 mph (ENE)    
Max Wind Speed 22 mph    
Max Gust Speed 26 mph    
Visibility 10 miles    
Events Rain    
Averages and records for this station are not official NWS values.
T = Trace of Precipitation, MM = Missing Value Source: NWS Daily Summary

Daily Weather History Graph

Daily Weather History Graph

Search for Another Location

Airport or City:

Trip Planner

Search our weather history database for the weather conditions in past years. The results will help you decide how hot, cold, wet, or windy it might be!

Date:

Astronomy

Apr. 16, 2013 Rise Set
Actual Time 7:09 AM CDT 8:18 PM CDT
Civil Twilight 6:43 AM CDT 8:44 PM CDT
Nautical Twilight 6:12 AM CDT 9:16 PM CDT
Astronomical Twilight 5:39 AM CDT 9:48 PM CDT
Moon 11:35 AM CDT (4/16) 1:11 AM CDT (4/16)
Length of Visible Light 14h 01m
Length of Day
13h 08m
Waxing Crescent, 33% of the Moon is Illuminated
Apr 16
Waxing Crescent
Apr 18
First Quarter
Apr 25
Full
May 2
Last Quarter
May 9
New

Hourly Weather History & Observations

Time (CDT) Temp. Windchill Dew Point Humidity Pressure Visibility Wind Dir Wind Speed Gust Speed Precip Events Conditions
12:15 AM 45.3 °F 37.8 °F 35.1 °F 67% 29.78 in 10.0 mi East 18.4 mph 24.2 mph N/A   Clear
12:35 AM 43.9 °F 35.2 °F 34.7 °F 70% 29.78 in 10.0 mi East 21.9 mph 26.5 mph N/A   Clear
12:55 AM 42.3 °F 34.1 °F 34.9 °F 75% 29.79 in 10.0 mi East 17.3 mph - N/A   Clear
1:15 AM 41.7 °F 33.4 °F 34.9 °F 77% 29.80 in 10.0 mi East 17.3 mph - N/A   Clear
1:35 AM 40.6 °F 32.0 °F 33.8 °F 77% 29.81 in 10.0 mi East 17.3 mph 21.9 mph N/A   Clear
1:55 AM 40.1 °F 33.2 °F 32.9 °F 75% 29.82 in 10.0 mi East 11.5 mph - N/A   Clear
2:15 AM 39.2 °F 35.9 °F 32.5 °F 77% 29.84 in 10.0 mi NE 4.6 mph 9.2 mph N/A   Clear
2:35 AM 38.5 °F 31.6 °F 32.2 °F 78% 29.84 in 10.0 mi ENE 10.4 mph - N/A   Clear
2:55 AM 38.3 °F 33.9 °F 32.0 °F 78% 29.84 in 10.0 mi ENE 5.8 mph - N/A   Scattered Clouds
3:15 AM 39.4 °F 33.2 °F 32.0 °F 75% 29.85 in 10.0 mi NNE 9.2 mph - N/A   Mostly Cloudy
3:35 AM 39.7 °F 32.3 °F 31.1 °F 71% 29.86 in 10.0 mi NNE 12.7 mph - N/A   Overcast
3:55 AM 39.7 °F 31.9 °F 29.3 °F 66% 29.85 in 10.0 mi NE 13.8 mph 19.6 mph N/A   Overcast
4:15 AM 39.9 °F 31.8 °F 28.0 °F 63% 29.86 in 10.0 mi NE 15.0 mph - N/A   Overcast
4:35 AM 40.1 °F 31.6 °F 27.5 °F 61% 29.87 in 10.0 mi NNE 16.1 mph - N/A   Overcast
4:55 AM 40.1 °F 31.0 °F 27.9 °F 62% 29.87 in 10.0 mi NE 18.4 mph - N/A   Overcast
5:15 AM 40.3 °F 31.6 °F 28.0 °F 62% 29.89 in 10.0 mi NNE 17.3 mph - N/A   Overcast
5:35 AM 40.5 °F 31.5 °F 28.9 °F 64% 29.90 in 10.0 mi NE 18.4 mph 23.0 mph N/A   Overcast
5:55 AM 40.1 °F 31.3 °F 29.3 °F 65% 29.92 in 10.0 mi NNE 17.3 mph 21.9 mph N/A   Overcast
6:15 AM 39.7 °F 31.2 °F 28.8 °F 65% 29.92 in 10.0 mi NNE 16.1 mph - N/A   Overcast
6:35 AM 39.6 °F 31.0 °F 28.9 °F 66% 29.93 in 10.0 mi NNE 16.1 mph - N/A   Overcast
7:15 AM 38.7 °F 30.1 °F 30.0 °F 71% 29.95 in 10.0 mi NE 15.0 mph 20.7 mph N/A   Overcast
7:35 AM 38.3 °F 29.3 °F 29.8 °F 72% 29.96 in 10.0 mi NE 16.1 mph - N/A   Overcast
7:55 AM 38.3 °F 29.0 °F 29.3 °F 70% 29.97 in 10.0 mi NE 17.3 mph - N/A   Overcast
8:15 AM 38.5 °F 30.3 °F 28.6 °F 68% 29.98 in 10.0 mi NNE 13.8 mph 19.6 mph N/A   Overcast
8:35 AM 38.8 °F 30.0 °F 28.9 °F 68% 30.00 in 10.0 mi NE 16.1 mph - N/A   Overcast
8:55 AM 39.6 °F 30.6 °F 28.8 °F 65% 29.99 in 10.0 mi NE 17.3 mph - N/A   Overcast
9:15 AM 40.1 °F 31.3 °F 29.1 °F 65% 29.99 in 10.0 mi NE 17.3 mph - N/A   Overcast
9:35 AM 40.3 °F 32.6 °F 29.3 °F 65% 30.00 in 10.0 mi NNE 13.8 mph - N/A   Overcast
9:55 AM 40.5 °F 32.8 °F 30.0 °F 66% 30.00 in 10.0 mi NE 13.8 mph - N/A   Overcast
10:15 AM 41.5 °F 35.4 °F 30.9 °F 66% 30.00 in 10.0 mi NE 10.4 mph - N/A   Overcast
10:35 AM 42.8 °F 36.2 °F 30.9 °F 63% 30.00 in 10.0 mi NE 12.7 mph 19.6 mph N/A   Overcast
10:55 AM 43.0 °F 36.0 °F 31.5 °F 64% 30.00 in 10.0 mi NE 13.8 mph 19.6 mph N/A   Overcast
11:15 AM 44.2 °F 37.6 °F 31.1 °F 60% 30.00 in 10.0 mi NE 13.8 mph 19.6 mph N/A   Overcast
11:35 AM 45.0 °F 38.9 °F 31.6 °F 60% 30.00 in 10.0 mi NE 12.7 mph - N/A   Overcast
11:55 AM 46.2 °F 40.5 °F 31.8 °F 57% 30.00 in 10.0 mi NNE 12.7 mph 17.3 mph N/A   Overcast
12:15 PM 47.1 °F - 32.0 °F 56% 30.00 in 10.0 mi NE 15.0 mph 18.4 mph N/A   Overcast
12:35 PM 48.7 °F - 32.4 °F 53% 29.99 in 10.0 mi NE 10.4 mph 18.4 mph N/A   Overcast
12:55 PM 49.3 °F - 32.4 °F 52% 29.98 in 10.0 mi NE 11.5 mph 16.1 mph N/A   Mostly Cloudy
1:15 PM 50.7 °F - 32.7 °F 50% 29.97 in 10.0 mi NE 10.4 mph 18.4 mph N/A   Scattered Clouds
1:35 PM 52.2 °F - 32.5 °F 47% 29.97 in 10.0 mi ENE 8.1 mph - N/A   Clear
1:55 PM 53.8 °F - 34.0 °F 47% 29.96 in 10.0 mi NE 10.4 mph - N/A   Clear
2:15 PM 54.9 °F - 34.2 °F 46% 29.94 in 10.0 mi ENE 12.7 mph 16.1 mph N/A   Clear
2:35 PM 55.2 °F - 34.9 °F 46% 29.94 in 10.0 mi East 9.2 mph 17.3 mph N/A   Clear
2:55 PM 56.8 °F - 35.2 °F 44% 29.93 in 10.0 mi East 12.7 mph 17.3 mph N/A   Clear
3:15 PM 57.2 °F - 35.1 °F 43% 29.93 in 10.0 mi ENE 9.2 mph - N/A   Clear
3:35 PM 58.1 °F - 35.4 °F 43% 29.92 in 10.0 mi ENE 9.2 mph - N/A   Clear
3:55 PM 59.5 °F - 35.1 °F 40% 29.91 in 10.0 mi East 11.5 mph - N/A   Clear
4:15 PM 59.5 °F - 34.7 °F 39% 29.90 in 10.0 mi East 5.8 mph 16.1 mph N/A   Clear
4:35 PM 60.1 °F - 34.5 °F 38% 29.89 in 10.0 mi ENE 8.1 mph - N/A   Clear
4:55 PM 61.2 °F - 34.5 °F 37% 29.89 in 10.0 mi East 11.5 mph 16.1 mph N/A   Clear
5:15 PM 60.3 °F - 35.2 °F 39% 29.87 in 10.0 mi East 12.7 mph 17.3 mph N/A   Clear
5:35 PM 61.7 °F - 35.2 °F 37% 29.88 in 10.0 mi East 11.5 mph 16.1 mph N/A   Clear
5:55 PM 61.9 °F - 35.8 °F 38% 29.87 in 10.0 mi ESE 16.1 mph - N/A   Clear
6:15 PM 62.1 °F - 36.5 °F 39% 29.88 in 10.0 mi SE 12.7 mph - N/A   Clear
6:35 PM 62.6 °F - 37.0 °F 39% 29.88 in 10.0 mi ESE 11.5 mph 18.4 mph N/A   Clear
6:55 PM 61.9 °F - 37.9 °F 41% 29.88 in 10.0 mi SE 15.0 mph - N/A   Clear
7:15 PM 60.4 °F - 38.3 °F 44% 29.87 in 10.0 mi SE 20.7 mph - N/A   Clear
7:35 PM 57.9 °F - 39.0 °F 49% 29.86 in 10.0 mi ESE 18.4 mph - N/A   Clear
7:55 PM 55.9 °F - 40.1 °F 55% 29.86 in 10.0 mi ESE 16.1 mph 19.6 mph N/A   Clear
8:15 PM 54.5 °F - 40.5 °F 59% 29.86 in 10.0 mi ESE 18.4 mph 23.0 mph N/A   Clear
8:35 PM 52.9 °F - 40.6 °F 63% 29.87 in 10.0 mi ESE 13.8 mph - N/A   Clear
8:55 PM 51.8 °F - 41.0 °F 67% 29.87 in 10.0 mi ESE 9.2 mph - N/A   Clear
9:15 PM 50.4 °F - 41.2 °F 71% 29.87 in 10.0 mi East 10.4 mph - N/A   Clear
9:35 PM 50.2 °F - 41.9 °F 73% 29.87 in 10.0 mi East 12.7 mph - N/A   Clear
9:55 PM 50.0 °F - 42.3 °F 75% 29.87 in 10.0 mi East 16.1 mph - N/A   Scattered Clouds
10:15 PM 49.1 °F - 42.1 °F 77% 29.87 in 10.0 mi East 13.8 mph - N/A   Scattered Clouds
10:35 PM 49.3 °F - 41.9 °F 76% 29.87 in 10.0 mi East 16.1 mph - N/A   Mostly Cloudy
10:55 PM 49.5 °F - 42.1 °F 76% 29.86 in 10.0 mi ESE 19.6 mph - N/A   Overcast
11:15 PM 49.8 °F - 42.3 °F 75% 29.86 in 10.0 mi ESE 17.3 mph - N/A   Overcast
11:35 PM 48.9 °F - 44.1 °F 83% 29.86 in 7.0 mi ESE 15.0 mph - N/A   Overcast
11:55 PM 47.1 °F - 45.0 °F 92% 29.86 in 2.0 mi ESE 13.8 mph - N/A Rain Light Rain